sensor_id;sensor_type;location;lat;lon;timestamp;pressure;altitude;pressure_sealevel;temperature;humidity
42111;BME280;27766;52.174;5.456;2022-07-22T00:00:28;102098.94;;;15.02;100.00
42111;BME280;27766;52.174;5.456;2022-07-22T00:02:55;102096.31;;;15.00;100.00
42111;BME280;27766;52.174;5.456;2022-07-22T00:05:22;102098.06;;;15.01;100.00
42111;BME280;27766;52.174;5.456;2022-07-22T00:07:50;102098.03;;;15.00;100.00
42111;BME280;27766;52.174;5.456;2022-07-22T00:10:17;102102.41;;;15.01;100.00
42111;BME280;27766;52.174;5.456;2022-07-22T00:12:44;102103.25;;;15.00;100.00
42111;BME280;27766;52.174;5.456;2022-07-22T00:15:11;102110.19;;;14.98;100.00
42111;BME280;27766;52.174;5.456;2022-07-22T00:17:38;102105.81;;;14.97;100.00
42111;BME280;27766;52.174;5.456;2022-07-22T00:20:07;102111.88;;;14.97;100.00
42111;BME280;27766;52.174;5.456;2022-07-22T00:22:34;102110.09;;;14.95;100.00
42111;BME280;27766;52.174;5.456;2022-07-22T00:25:03;102109.25;;;14.96;100.00
42111;BME280;27766;52.174;5.456;2022-07-22T00:27:30;102108.31;;;14.92;100.00
42111;BME280;27766;52.174;5.456;2022-07-22T00:29:58;102102.28;;;14.95;100.00
42111;BME280;27766;52.174;5.456;2022-07-22T00:32:25;102106.59;;;14.94;100.00
42111;BME280;27766;52.174;5.456;2022-07-22T00:34:52;102103.97;;;14.93;100.00
42111;BME280;27766;52.174;5.456;2022-07-22T00:37:19;102095.31;;;14.94;100.00
42111;BME280;27766;52.174;5.456;2022-07-22T00:39:46;102094.38;;;14.92;100.00
42111;BME280;27766;52.174;5.456;2022-07-22T00:42:15;102091.66;;;14.85;100.00
42111;BME280;27766;52.174;5.456;2022-07-22T00:44:43;102089.91;;;14.84;100.00
42111;BME280;27766;52.174;5.456;2022-07-22T00:47:11;102085.59;;;14.85;100.00
42111;BME280;27766;52.174;5.456;2022-07-22T00:49:38;102089.91;;;14.84;100.00
42111;BME280;27766;52.174;5.456;2022-07-22T00:52:06;102084.75;;;14.87;100.00
42111;BME280;27766;52.174;5.456;2022-07-22T00:54:36;102085.59;;;14.86;100.00
42111;BME280;27766;52.174;5.456;2022-07-22T00:57:03;102089.94;;;14.86;100.00
42111;BME280;27766;52.174;5.456;2022-07-22T00:59:31;102081.34;;;14.90;100.00
42111;BME280;27766;52.174;5.456;2022-07-22T01:01:58;102090.13;;;14.95;100.00
42111;BME280;27766;52.174;5.456;2022-07-22T01:04:25;102079.78;;;15.00;100.00
42111;BME280;27766;52.174;5.456;2022-07-22T01:06:53;102084.16;;;15.01;100.00
42111;BME280;27766;52.174;5.456;2022-07-22T01:09:21;102082.38;;;15.00;100.00
42111;BME280;27766;52.174;5.456;2022-07-22T01:11:49;102087.66;;;15.03;100.00
42111;BME280;27766;52.174;5.456;2022-07-22T01:14:17;102081.56;;;15.02;100.00
42111;BME280;27766;52.174;5.456;2022-07-22T01:16:44;102088.59;;;15.05;100.00
42111;BME280;27766;52.174;5.456;2022-07-22T01:19:16;102089.34;;;15.01;100.00
42111;BME280;27766;52.174;5.456;2022-07-22T01:21:43;102087.56;;;14.98;100.00
42111;BME280;27766;52.174;5.456;2022-07-22T01:24:11;102089.34;;;15.01;100.00
42111;BME280;27766;52.174;5.456;2022-07-22T01:26:38;102088.41;;;14.97;100.00
42111;BME280;27766;52.174;5.456;2022-07-22T01:29:07;102090.28;;;15.03;100.00
42111;BME280;27766;52.174;5.456;2022-07-22T01:31:34;102086.75;;;15.01;100.00
42111;BME280;27766;52.174;5.456;2022-07-22T01:34:01;102082.34;;;14.97;100.00
42111;BME280;27766;52.174;5.456;2022-07-22T01:36:29;102080.63;;;14.99;100.00
42111;BME280;27766;52.174;5.456;2022-07-22T01:38:58;102085.06;;;15.03;100.00
42111;BME280;27766;52.174;5.456;2022-07-22T01:41:26;102089.34;;;15.01;100.00
42111;BME280;27766;52.174;5.456;2022-07-22T01:43:53;102090.22;;;15.00;100.00
42111;BME280;27766;52.174;5.456;2022-07-22T01:46:21;102079.72;;;14.97;100.00
42111;BME280;27766;52.174;5.456;2022-07-22T01:48:51;102080.63;;;14.99;100.00
42111;BME280;27766;52.174;5.456;2022-07-22T01:51:19;102081.50;;;14.98;100.00
42111;BME280;27766;52.174;5.456;2022-07-22T01:53:46;102082.28;;;14.95;100.00
42111;BME280;27766;52.174;5.456;2022-07-22T01:56:13;102078.00;;;14.99;100.00
42111;BME280;27766;52.174;5.456;2022-07-22T01:58:41;102078.00;;;14.99;100.00
42111;BME280;27766;52.174;5.456;2022-07-22T02:01:09;102075.38;;;14.97;100.00
42111;BME280;27766;52.174;5.456;2022-07-22T02:03:37;102077.97;;;14.96;100.00
42111;BME280;27766;52.174;5.456;2022-07-22T02:06:04;102082.38;;;14.98;100.00
42111;BME280;27766;52.174;5.456;2022-07-22T02:08:32;102073.63;;;14.96;100.00
42111;BME280;27766;52.174;5.456;2022-07-22T02:10:59;102071.00;;;14.95;100.00
42111;BME280;27766;52.174;5.456;2022-07-22T02:13:27;102073.59;;;14.95;100.00
42111;BME280;27766;52.174;5.456;2022-07-22T02:15:54;102066.63;;;14.94;100.00
42111;BME280;27766;52.174;5.456;2022-07-22T02:18:21;102064.88;;;14.93;100.00
42111;BME280;27766;52.174;5.456;2022-07-22T02:20:49;102070.94;;;14.92;100.00
42111;BME280;27766;52.174;5.456;2022-07-22T02:23:16;102063.94;;;14.91;100.00
42111;BME280;27766;52.174;5.456;2022-07-22T02:25:43;102063.09;;;14.90;100.00
42111;BME280;27766;52.174;5.456;2022-07-22T02:28:11;102055.25;;;14.88;100.00
42111;BME280;27766;52.174;5.456;2022-07-22T02:30:38;102059.63;;;14.90;100.00
42111;BME280;27766;52.174;5.456;2022-07-22T02:33:06;102059.63;;;14.91;100.00
42111;BME280;27766;52.174;5.456;2022-07-22T02:35:35;102051.72;;;14.86;100.00
42111;BME280;27766;52.174;5.456;2022-07-22T02:38:03;102050.03;;;14.88;100.00
42111;BME280;27766;52.174;5.456;2022-07-22T02:40:30;102050.97;;;14.92;100.00
42111;BME280;27766;52.174;5.456;2022-07-22T02:42:59;102050.06;;;14.92;100.00
42111;BME280;27766;52.174;5.456;2022-07-22T02:45:26;102057.94;;;14.93;100.00
42111;BME280;27766;52.174;5.456;2022-07-22T02:47:55;102057.91;;;14.92;100.00
42111;BME280;27766;52.174;5.456;2022-07-22T02:50:22;102057.03;;;14.91;100.00
42111;BME280;27766;52.174;5.456;2022-07-22T02:52:50;102052.69;;;14.92;100.00
42111;BME280;27766;52.174;5.456;2022-07-22T02:55:18;102048.31;;;14.91;100.00
42111;BME280;27766;52.174;5.456;2022-07-22T02:57:45;102051.78;;;14.90;100.00
42111;BME280;27766;52.174;5.456;2022-07-22T03:00:13;102061.31;;;14.87;100.00
42111;BME280;27766;52.174;5.456;2022-07-22T03:02:41;102048.28;;;14.89;100.00
42111;BME280;27766;52.174;5.456;2022-07-22T03:05:09;102048.25;;;14.86;100.00
42111;BME280;27766;52.174;5.456;2022-07-22T03:07:37;102049.13;;;14.88;100.00
42111;BME280;27766;52.174;5.456;2022-07-22T03:10:04;102056.09;;;14.87;100.00
42111;BME280;27766;52.174;5.456;2022-07-22T03:12:32;102049.97;;;14.85;100.00
42111;BME280;27766;52.174;5.456;2022-07-22T03:14:59;102062.06;;;14.83;100.00
42111;BME280;27766;52.174;5.456;2022-07-22T03:17:27;102056.09;;;14.87;100.00
42111;BME280;27766;52.174;5.456;2022-07-22T03:19:54;102051.63;;;14.82;100.00
42111;BME280;27766;52.174;5.456;2022-07-22T03:22:21;102044.63;;;14.79;100.00
42111;BME280;27766;52.174;5.456;2022-07-22T03:24:48;102064.75;;;14.86;100.00
42111;BME280;27766;52.174;5.456;2022-07-22T03:27:16;102060.28;;;14.81;100.00
42111;BME280;27766;52.174;5.456;2022-07-22T03:29:43;102052.44;;;14.79;100.00
42111;BME280;27766;52.174;5.456;2022-07-22T03:32:11;102061.31;;;14.87;100.00
42111;BME280;27766;52.174;5.456;2022-07-22T03:34:38;102067.34;;;14.86;100.00
42111;BME280;27766;52.174;5.456;2022-07-22T03:37:07;102066.50;;;14.87;100.00
42111;BME280;27766;52.174;5.456;2022-07-22T03:39:34;102054.34;;;14.88;100.00
42111;BME280;27766;52.174;5.456;2022-07-22T03:42:01;102056.09;;;14.87;100.00
42111;BME280;27766;52.174;5.456;2022-07-22T03:44:28;102062.22;;;14.90;100.00
42111;BME280;27766;52.174;5.456;2022-07-22T03:46:56;102066.56;;;14.91;100.00
42111;BME280;27766;52.174;5.456;2022-07-22T03:49:23;102057.00;;;14.90;100.00
42111;BME280;27766;52.174;5.456;2022-07-22T03:51:50;102047.34;;;14.85;100.00
42111;BME280;27766;52.174;5.456;2022-07-22T03:54:19;102057.00;;;14.90;100.00
42111;BME280;27766;52.174;5.456;2022-07-22T03:56:46;102053.47;;;14.87;100.00
42111;BME280;27766;52.174;5.456;2022-07-22T03:59:13;102053.50;;;14.89;100.00
42111;BME280;27766;52.174;5.456;2022-07-22T04:01:41;102052.63;;;14.88;100.00
42111;BME280;27766;52.174;5.456;2022-07-22T04:04:08;102060.50;;;14.92;100.00
42111;BME280;27766;52.174;5.456;2022-07-22T04:06:37;102057.03;;;14.93;100.00
42111;BME280;27766;52.174;5.456;2022-07-22T04:09:04;102057.13;;;14.96;100.00
42111;BME280;27766;52.174;5.456;2022-07-22T04:11:31;102065.91;;;15.01;100.00
42111;BME280;27766;52.174;5.456;2022-07-22T04:13:59;102059.84;;;15.02;100.00
42111;BME280;27766;52.174;5.456;2022-07-22T04:16:27;102053.78;;;15.03;100.00
42111;BME280;27766;52.174;5.456;2022-07-22T04:18:54;102060.84;;;15.09;100.00
42111;BME280;27766;52.174;5.456;2022-07-22T04:21:22;102051.16;;;15.03;100.00
42111;BME280;27766;52.174;5.456;2022-07-22T04:23:50;102057.25;;;15.03;100.00
42111;BME280;27766;52.174;5.456;2022-07-22T04:26:17;102060.78;;;15.07;100.00
42111;BME280;27766;52.174;5.456;2022-07-22T04:28:44;102064.31;;;15.09;100.00
42111;BME280;27766;52.174;5.456;2022-07-22T04:31:11;102058.25;;;15.09;100.00
42111;BME280;27766;52.174;5.456;2022-07-22T04:33:39;102052.13;;;15.08;100.00
42111;BME280;27766;52.174;5.456;2022-07-22T04:36:07;102043.47;;;15.09;100.00
42111;BME280;27766;52.174;5.456;2022-07-22T04:38:34;102049.59;;;15.13;100.00
42111;BME280;27766;52.174;5.456;2022-07-22T04:41:02;102052.19;;;15.11;100.00
42111;BME280;27766;52.174;5.456;2022-07-22T04:43:29;102054.81;;;15.13;100.00
42111;BME280;27766;52.174;5.456;2022-07-22T04:45:57;102054.00;;;15.15;100.00
42111;BME280;27766;52.174;5.456;2022-07-22T04:48:25;102053.22;;;15.19;100.00
42111;BME280;27766;52.174;5.456;2022-07-22T04:50:52;102048.84;;;15.18;100.00
42111;BME280;27766;52.174;5.456;2022-07-22T04:53:19;102041.00;;;15.17;100.00
42111;BME280;27766;52.174;5.456;2022-07-22T04:56:06;102044.56;;;15.22;100.00
42111;BME280;27766;52.174;5.456;2022-07-22T04:58:33;102038.44;;;15.22;100.00
42111;BME280;27766;52.174;5.456;2022-07-22T05:01:01;102048.97;;;15.26;100.00
42111;BME280;27766;52.174;5.456;2022-07-22T05:03:28;102048.09;;;15.26;100.00
42111;BME280;27766;52.174;5.456;2022-07-22T05:05:55;102045.50;;;15.26;100.00
42111;BME280;27766;52.174;5.456;2022-07-22T05:08:23;102048.09;;;15.26;100.00
42111;BME280;27766;52.174;5.456;2022-07-22T05:10:50;102043.84;;;15.31;100.00
42111;BME280;27766;52.174;5.456;2022-07-22T05:13:17;102054.31;;;15.32;100.00
42111;BME280;27766;52.174;5.456;2022-07-22T05:15:44;102050.88;;;15.35;100.00
42111;BME280;27766;52.174;5.456;2022-07-22T05:18:11;102055.28;;;15.39;100.00
42111;BME280;27766;52.174;5.456;2022-07-22T05:20:39;102059.66;;;15.40;100.00
42111;BME280;27766;52.174;5.456;2022-07-22T05:23:07;102056.22;;;15.44;100.00
42111;BME280;27766;52.174;5.456;2022-07-22T05:25:34;102048.47;;;15.46;100.00
42111;BME280;27766;52.174;5.456;2022-07-22T05:28:01;102051.16;;;15.52;100.00
42111;BME280;27766;52.174;5.456;2022-07-22T05:30:29;102061.59;;;15.50;100.00
42111;BME280;27766;52.174;5.456;2022-07-22T05:32:56;102063.28;;;15.48;100.00
42111;BME280;27766;52.174;5.456;2022-07-22T05:35:24;102067.66;;;15.49;100.00
42111;BME280;27766;52.174;5.456;2022-07-22T05:37:51;102071.13;;;15.50;100.00
42111;BME280;27766;52.174;5.456;2022-07-22T05:40:18;102059.00;;;15.52;100.00
42111;BME280;27766;52.174;5.456;2022-07-22T05:42:46;102067.66;;;15.49;100.00
42111;BME280;27766;52.174;5.456;2022-07-22T05:45:13;102071.19;;;15.53;100.00
42111;BME280;27766;52.174;5.456;2022-07-22T05:47:40;102066.06;;;15.59;100.00
42111;BME280;27766;52.174;5.456;2022-07-22T05:50:08;102071.28;;;15.59;100.00
42111;BME280;27766;52.174;5.456;2022-07-22T05:52:36;102066.88;;;15.55;100.00
42111;BME280;27766;52.174;5.456;2022-07-22T05:55:05;102071.22;;;15.56;100.00
42111;BME280;27766;52.174;5.456;2022-07-22T05:57:33;102070.38;;;15.57;100.00
42111;BME280;27766;52.174;5.456;2022-07-22T06:00:00;102068.66;;;15.58;100.00
42111;BME280;27766;52.174;5.456;2022-07-22T06:02:27;102073.91;;;15.61;100.00
42111;BME280;27766;52.174;5.456;2022-07-22T06:04:55;102077.53;;;15.69;100.00
42111;BME280;27766;52.174;5.456;2022-07-22T06:07:23;102070.69;;;15.74;100.00
42111;BME280;27766;52.174;5.456;2022-07-22T06:09:51;102073.31;;;15.77;100.00
42111;BME280;27766;52.174;5.456;2022-07-22T06:12:18;102062.84;;;15.74;100.00
42111;BME280;27766;52.174;5.456;2022-07-22T06:14:45;102070.78;;;15.82;100.00
42111;BME280;27766;52.174;5.456;2022-07-22T06:17:13;102070.88;;;15.87;100.00
42111;BME280;27766;52.174;5.456;2022-07-22T06:19:42;102077.09;;;15.95;100.00
42111;BME280;27766;52.174;5.456;2022-07-22T06:22:09;102068.50;;;16.01;100.00
42111;BME280;27766;52.174;5.456;2022-07-22T06:24:37;102074.75;;;16.12;100.00
42111;BME280;27766;52.174;5.456;2022-07-22T06:27:05;102078.19;;;16.09;100.00
42111;BME280;27766;52.174;5.456;2022-07-22T06:29:32;102072.97;;;16.09;100.00
42111;BME280;27766;52.174;5.456;2022-07-22T06:32:23;102082.63;;;16.15;100.00
42111;BME280;27766;52.174;5.456;2022-07-22T06:35:08;102073.13;;;16.19;100.00
42111;BME280;27766;52.174;5.456;2022-07-22T06:37:38;102064.28;;;16.10;100.00
42111;BME280;27766;52.174;5.456;2022-07-22T06:40:28;102075.66;;;16.12;100.00
42111;BME280;27766;52.174;5.456;2022-07-22T06:42:55;102073.91;;;16.14;100.00
42111;BME280;27766;52.174;5.456;2022-07-22T06:45:23;102077.56;;;16.24;100.00
42111;BME280;27766;52.174;5.456;2022-07-22T06:47:50;102076.59;;;16.21;100.00
42111;BME280;27766;52.174;5.456;2022-07-22T06:50:17;102070.59;;;16.25;100.00
42111;BME280;27766;52.174;5.456;2022-07-22T06:52:44;102068.03;;;16.31;100.00
42111;BME280;27766;52.174;5.456;2022-07-22T06:55:12;102063.75;;;16.35;100.00
42111;BME280;27766;52.174;5.456;2022-07-22T06:57:39;102062.06;;;16.40;100.00
42111;BME280;27766;52.174;5.456;2022-07-22T07:00:08;102063.81;;;16.39;100.00
42111;BME280;27766;52.174;5.456;2022-07-22T07:02:37;102069.03;;;16.41;100.00
42111;BME280;27766;52.174;5.456;2022-07-22T07:05:05;102075.97;;;16.37;100.00
42111;BME280;27766;52.174;5.456;2022-07-22T07:07:32;102062.81;;;16.31;100.00
42111;BME280;27766;52.174;5.456;2022-07-22T07:10:04;102064.53;;;16.29;100.00
42111;BME280;27766;52.174;5.456;2022-07-22T07:12:35;102071.56;;;16.33;100.00
42111;BME280;27766;52.174;5.456;2022-07-22T07:15:05;102064.59;;;16.34;100.00
42111;BME280;27766;52.174;5.456;2022-07-22T07:17:52;102069.03;;;16.38;100.00
42111;BME280;27766;52.174;5.456;2022-07-22T07:20:19;102067.28;;;16.40;100.00
42111;BME280;27766;52.174;5.456;2022-07-22T07:22:47;102054.19;;;16.37;100.00
42111;BME280;27766;52.174;5.456;2022-07-22T07:25:14;102072.56;;;16.43;100.00
42111;BME280;27766;52.174;5.456;2022-07-22T07:27:51;102071.69;;;16.42;100.00
42111;BME280;27766;52.174;5.456;2022-07-22T07:30:21;102070.75;;;16.37;100.00
42111;BME280;27766;52.174;5.456;2022-07-22T07:32:49;102069.03;;;16.39;100.00
42111;BME280;27766;52.174;5.456;2022-07-22T07:35:16;102069.94;;;16.43;100.00
42111;BME280;27766;52.174;5.456;2022-07-22T07:37:43;102067.34;;;16.43;100.00
42111;BME280;27766;52.174;5.456;2022-07-22T07:40:12;102063.09;;;16.53;100.00
42111;BME280;27766;52.174;5.456;2022-07-22T07:42:41;102070.16;;;16.58;100.00
42111;BME280;27766;52.174;5.456;2022-07-22T07:45:14;102070.19;;;16.61;100.00
42111;BME280;27766;52.174;5.456;2022-07-22T07:47:41;102073.59;;;16.56;100.00
42111;BME280;27766;52.174;5.456;2022-07-22T07:50:09;102073.69;;;16.64;100.00
42111;BME280;27766;52.174;5.456;2022-07-22T07:52:43;102079.03;;;16.74;100.00
42111;BME280;27766;52.174;5.456;2022-07-22T07:55:18;102081.66;;;16.73;100.00
42111;BME280;27766;52.174;5.456;2022-07-22T07:57:46;102073.00;;;16.78;100.00
42111;BME280;27766;52.174;5.456;2022-07-22T08:00:20;102063.47;;;16.81;100.00
42111;BME280;27766;52.174;5.456;2022-07-22T08:02:48;102075.63;;;16.78;100.00
42111;BME280;27766;52.174;5.456;2022-07-22T08:05:16;102074.75;;;16.78;100.00
42111;BME280;27766;52.174;5.456;2022-07-22T08:07:46;102076.41;;;16.71;100.00
42111;BME280;27766;52.174;5.456;2022-07-22T08:10:13;102080.81;;;16.75;100.00
42111;BME280;27766;52.174;5.456;2022-07-22T08:13:02;102079.16;;;16.81;100.00
42111;BME280;27766;52.174;5.456;2022-07-22T08:15:31;102080.91;;;16.82;100.00
42111;BME280;27766;52.174;5.456;2022-07-22T08:17:59;102091.38;;;16.86;100.00
42111;BME280;27766;52.174;5.456;2022-07-22T08:20:28;102084.44;;;16.87;100.00
42111;BME280;27766;52.174;5.456;2022-07-22T08:22:56;102078.34;;;16.89;100.00
42111;BME280;27766;52.174;5.456;2022-07-22T08:25:24;102081.91;;;16.93;100.00
42111;BME280;27766;52.174;5.456;2022-07-22T08:27:51;102084.59;;;16.96;100.00
42111;BME280;27766;52.174;5.456;2022-07-22T08:30:18;102076.69;;;16.93;100.00
42111;BME280;27766;52.174;5.456;2022-07-22T08:32:46;102068.91;;;16.99;100.00
42111;BME280;27766;52.174;5.456;2022-07-22T08:35:13;102075.03;;;17.01;100.00
42111;BME280;27766;52.174;5.456;2022-07-22T08:37:42;102074.25;;;17.10;100.00
42111;BME280;27766;52.174;5.456;2022-07-22T08:40:09;102082.16;;;17.13;100.00
42111;BME280;27766;52.174;5.456;2022-07-22T08:42:39;102068.25;;;17.19;100.00
42111;BME280;27766;52.174;5.456;2022-07-22T08:45:09;102070.22;;;17.42;100.00
42111;BME280;27766;52.174;5.456;2022-07-22T08:47:49;102071.97;;;17.44;100.00
42111;BME280;27766;52.174;5.456;2022-07-22T08:50:18;102073.81;;;17.56;100.00
42111;BME280;27766;52.174;5.456;2022-07-22T08:52:47;102070.31;;;17.52;100.00
42111;BME280;27766;52.174;5.456;2022-07-22T08:55:16;102062.41;;;17.48;100.00
42111;BME280;27766;52.174;5.456;2022-07-22T08:57:47;102066.88;;;17.58;100.00
42111;BME280;27766;52.174;5.456;2022-07-22T09:00:17;102068.59;;;17.56;100.00
42111;BME280;27766;52.174;5.456;2022-07-22T09:02:45;102048.47;;;17.52;100.00
42111;BME280;27766;52.174;5.456;2022-07-22T09:05:13;102065.22;;;17.71;100.00
42111;BME280;27766;52.174;5.456;2022-07-22T09:08:02;102059.16;;;17.75;100.00
42111;BME280;27766;52.174;5.456;2022-07-22T09:10:33;102060.88;;;17.75;100.00
42111;BME280;27766;52.174;5.456;2022-07-22T09:13:04;102060.94;;;17.84;100.00
42111;BME280;27766;52.174;5.456;2022-07-22T09:15:34;102056.63;;;17.94;100.00
42111;BME280;27766;52.174;5.456;2022-07-22T09:18:05;102055.88;;;18.06;100.00
42111;BME280;27766;52.174;5.456;2022-07-22T09:20:34;102037.56;;;18.10;100.00
42111;BME280;27766;52.174;5.456;2022-07-22T09:23:09;102026.25;;;18.17;100.00
42111;BME280;27766;52.174;5.456;2022-07-22T09:25:38;102039.41;;;18.24;100.00
42111;BME280;27766;52.174;5.456;2022-07-22T09:30:39;102040.28;;;18.24;100.00
42111;BME280;27766;52.174;5.456;2022-07-22T09:33:11;102046.44;;;18.35;100.00
42111;BME280;27766;52.174;5.456;2022-07-22T09:35:39;102053.44;;;18.35;100.00
42111;BME280;27766;52.174;5.456;2022-07-22T09:38:17;102059.44;;;18.12;100.00
42111;BME280;27766;52.174;5.456;2022-07-22T09:40:46;102063.88;;;18.27;100.00
42111;BME280;27766;52.174;5.456;2022-07-22T09:43:18;102059.53;;;18.35;100.00
42111;BME280;27766;52.174;5.456;2022-07-22T09:45:53;102064.00;;;18.54;100.00
42111;BME280;27766;52.174;5.456;2022-07-22T09:48:25;102054.41;;;18.57;100.00
42111;BME280;27766;52.174;5.456;2022-07-22T09:50:54;102043.06;;;18.61;100.00
42111;BME280;27766;52.174;5.456;2022-07-22T09:53:25;102045.72;;;18.71;100.00
42111;BME280;27766;52.174;5.456;2022-07-22T09:55:56;102053.63;;;18.89;100.00
42111;BME280;27766;52.174;5.456;2022-07-22T09:58:25;102043.84;;;18.45;100.00
42111;BME280;27766;52.174;5.456;2022-07-22T10:00:57;102043.88;;;18.42;100.00
42111;BME280;27766;52.174;5.456;2022-07-22T10:03:30;102046.50;;;18.51;100.00
42111;BME280;27766;52.174;5.456;2022-07-22T10:06:00;102041.34;;;18.68;100.00
42111;BME280;27766;52.174;5.456;2022-07-22T10:08:30;102037.84;;;18.69;100.00
42111;BME280;27766;52.174;5.456;2022-07-22T10:11:01;102040.56;;;18.94;100.00
42111;BME280;27766;52.174;5.456;2022-07-22T10:13:30;102045.81;;;18.98;100.00
42111;BME280;27766;52.174;5.456;2022-07-22T10:15:58;102048.44;;;18.98;100.00
42111;BME280;27766;52.174;5.456;2022-07-22T10:18:27;102047.50;;;18.81;100.00
42111;BME280;27766;52.174;5.456;2022-07-22T10:21:02;102056.31;;;18.95;100.00
42111;BME280;27766;52.174;5.456;2022-07-22T10:23:30;102053.56;;;18.74;100.00
42111;BME280;27766;52.174;5.456;2022-07-22T10:26:00;102043.09;;;18.75;100.00
42111;BME280;27766;52.174;5.456;2022-07-22T10:28:29;102052.75;;;18.87;100.00
42111;BME280;27766;52.174;5.456;2022-07-22T10:31:22;102057.19;;;19.02;100.00
42111;BME280;27766;52.174;5.456;2022-07-22T10:33:56;102062.38;;;18.90;100.00
42111;BME280;27766;52.174;5.456;2022-07-22T10:36:38;102051.06;;;19.02;100.00
42111;BME280;27766;52.174;5.456;2022-07-22T10:39:12;102037.09;;;19.03;100.00
42111;BME280;27766;52.174;5.456;2022-07-22T10:41:45;102046.63;;;18.83;100.00
42111;BME280;27766;52.174;5.456;2022-07-22T10:44:47;102050.97;;;18.77;100.00
42111;BME280;27766;52.174;5.456;2022-07-22T10:47:52;102050.22;;;19.03;100.00
42111;BME280;27766;52.174;5.456;2022-07-22T10:53:10;102042.34;;;19.37;98.66
42111;BME280;27766;52.174;5.456;2022-07-22T10:55:57;102046.72;;;19.44;100.00
42111;BME280;27766;52.174;5.456;2022-07-22T11:01:05;102057.25;;;19.61;100.00
42111;BME280;27766;52.174;5.456;2022-07-22T11:03:35;102055.47;;;19.74;100.00
42111;BME280;27766;52.174;5.456;2022-07-22T11:08:58;102051.13;;;19.57;100.00
42111;BME280;27766;52.174;5.456;2022-07-22T11:14:01;102038.84;;;19.66;96.21
42111;BME280;27766;52.174;5.456;2022-07-22T11:16:29;102034.47;;;19.99;93.40
42111;BME280;27766;52.174;5.456;2022-07-22T11:19:01;102028.38;;;19.84;95.30
42111;BME280;27766;52.174;5.456;2022-07-22T11:21:31;102029.22;;;19.37;96.71
42111;BME280;27766;52.174;5.456;2022-07-22T11:24:04;102031.00;;;19.27;99.46
42111;BME280;27766;52.174;5.456;2022-07-22T11:26:37;102022.25;;;19.54;100.00
42111;BME280;27766;52.174;5.456;2022-07-22T11:29:09;102015.22;;;19.66;95.83
42111;BME280;27766;52.174;5.456;2022-07-22T11:31:38;102017.00;;;19.48;97.71
42111;BME280;27766;52.174;5.456;2022-07-22T11:34:10;102023.97;;;19.74;99.72
42111;BME280;27766;52.174;5.456;2022-07-22T11:36:43;102022.22;;;19.79;96.17
42111;BME280;27766;52.174;5.456;2022-07-22T11:39:16;102012.56;;;19.90;94.30
42111;BME280;27766;52.174;5.456;2022-07-22T11:41:44;102009.94;;;19.98;86.45
42111;BME280;27766;52.174;5.456;2022-07-22T11:44:12;102013.47;;;19.86;93.36
42111;BME280;27766;52.174;5.456;2022-07-22T11:46:42;102025.72;;;19.73;94.89
42111;BME280;27766;52.174;5.456;2022-07-22T11:49:13;102027.47;;;19.31;99.80
42111;BME280;27766;52.174;5.456;2022-07-22T11:51:42;102025.75;;;19.27;100.00
42111;BME280;27766;52.174;5.456;2022-07-22T11:54:10;102026.59;;;19.09;100.00
42111;BME280;27766;52.174;5.456;2022-07-22T11:56:38;102021.34;;;19.15;100.00
42111;BME280;27766;52.174;5.456;2022-07-22T11:59:12;102006.50;;;19.22;100.00
42111;BME280;27766;52.174;5.456;2022-07-22T12:01:42;102003.88;;;19.42;99.63
42111;BME280;27766;52.174;5.456;2022-07-22T12:04:13;102003.84;;;19.56;100.00
42111;BME280;27766;52.174;5.456;2022-07-22T12:06:42;101988.94;;;19.78;98.36
42111;BME280;27766;52.174;5.456;2022-07-22T12:09:14;101985.41;;;20.01;94.02
42111;BME280;27766;52.174;5.456;2022-07-22T12:11:45;101980.09;;;20.18;100.00
42111;BME280;27766;52.174;5.456;2022-07-22T12:14:14;101975.59;;;20.43;93.44
42111;BME280;27766;52.174;5.456;2022-07-22T12:19:13;101970.97;;;20.88;80.01
42111;BME280;27766;52.174;5.456;2022-07-22T12:24:30;101962.00;;;21.17;70.54
42111;BME280;27766;52.174;5.456;2022-07-22T12:27:19;101962.81;;;21.23;72.57
42111;BME280;27766;52.174;5.456;2022-07-22T12:29:48;101963.03;;;20.95;72.71
42111;BME280;27766;52.174;5.456;2022-07-22T12:40:09;101953.50;;;20.80;70.90
42111;BME280;27766;52.174;5.456;2022-07-22T12:42:44;101951.00;;;20.50;75.20
42111;BME280;27766;52.174;5.456;2022-07-22T12:45:16;101957.22;;;20.40;79.80
42111;BME280;27766;52.174;5.456;2022-07-22T12:50:29;101958.25;;;20.11;80.70
42111;BME280;27766;52.174;5.456;2022-07-22T12:52:58;101959.06;;;20.19;79.55
42111;BME280;27766;52.174;5.456;2022-07-22T12:55:53;101948.63;;;19.93;88.50
42111;BME280;27766;52.174;5.456;2022-07-22T12:58:26;101952.75;;;20.51;78.87
42111;BME280;27766;52.174;5.456;2022-07-22T13:00:56;101956.69;;;21.22;75.57
42111;BME280;27766;52.174;5.456;2022-07-22T13:03:25;101960.31;;;21.96;68.22
42111;BME280;27766;52.174;5.456;2022-07-22T13:05:57;101946.69;;;22.33;60.43
42111;BME280;27766;52.174;5.456;2022-07-22T13:08:25;101949.03;;;22.56;59.56
42111;BME280;27766;52.174;5.456;2022-07-22T13:11:07;101945.56;;;22.53;59.96
42111;BME280;27766;52.174;5.456;2022-07-22T13:13:34;101940.69;;;22.22;58.53
42111;BME280;27766;52.174;5.456;2022-07-22T13:16:01;101937.44;;;22.00;61.31
42111;BME280;27766;52.174;5.456;2022-07-22T13:18:29;101952.06;;;21.44;61.76
42111;BME280;27766;52.174;5.456;2022-07-22T13:20:56;101944.47;;;21.15;63.95